Foster, Wisconsin
Current Conditions -  °F | °C
As of 10:56 PM on Thursday 30 Oct 2014 (Local Time) from KEAU Reporting Station
Overcast Overcast  
Wind Chill: 27°   Ceiling: 6500
Heat Index: 35°   Visibility: 10mi
Dew Point: 19°   Wind: 12mph
Humidity: 52%   Direction: 340°NNW
Pressure: 30.22"   Gusts: 26mph
Location:  44.5464°N, 91.2123°W
Report Text: KEAU 310356Z AUTO 34010G23KT 10SM OVC065 02/M07 A3022 RMK AO2 PK WND 34032/0332 SLP242 T00171072
Loading
Personal Weather Stations






























Interactive Weather Map
Tropical Storm Tracking
New forecast layout! Learn more

10-Day Weather Forecast

Advertisements
Track Severe Weather on mobile